sensor_id;sensor_type;location;lat;lon;timestamp;P1;durP1;ratioP1;P2;durP2;ratioP2
65613;SDS011;52283;49.292;10.572;2022-07-03T00:01:30;1.15;;;0.85;;
65613;SDS011;52283;49.292;10.572;2022-07-03T00:03:56;2.42;;;1.60;;
65613;SDS011;52283;49.292;10.572;2022-07-03T00:06:23;1.30;;;1.20;;
65613;SDS011;52283;49.292;10.572;2022-07-03T00:08:51;2.50;;;1.20;;
65613;SDS011;52283;49.292;10.572;2022-07-03T00:11:18;2.17;;;1.20;;
65613;SDS011;52283;49.292;10.572;2022-07-03T00:13:46;1.02;;;0.93;;
65613;SDS011;52283;49.292;10.572;2022-07-03T00:16:14;0.90;;;0.90;;
65613;SDS011;52283;49.292;10.572;2022-07-03T00:18:41;4.18;;;1.20;;
65613;SDS011;52283;49.292;10.572;2022-07-03T00:21:09;1.30;;;1.20;;
65613;SDS011;52283;49.292;10.572;2022-07-03T00:23:38;2.67;;;1.13;;
65613;SDS011;52283;49.292;10.572;2022-07-03T00:26:07;1.65;;;1.40;;
65613;SDS011;52283;49.292;10.572;2022-07-03T00:28:34;1.33;;;1.23;;
65613;SDS011;52283;49.292;10.572;2022-07-03T00:31:01;1.30;;;1.20;;
65613;SDS011;52283;49.292;10.572;2022-07-03T00:33:30;9.25;;;1.38;;
65613;SDS011;52283;49.292;10.572;2022-07-03T00:36:00;1.65;;;1.50;;
65613;SDS011;52283;49.292;10.572;2022-07-03T00:38:28;6.32;;;1.17;;
65613;SDS011;52283;49.292;10.572;2022-07-03T00:40:55;2.15;;;1.30;;
65613;SDS011;52283;49.292;10.572;2022-07-03T00:43:21;1.52;;;1.40;;
65613;SDS011;52283;49.292;10.572;2022-07-03T00:45:48;1.63;;;1.35;;
65613;SDS011;52283;49.292;10.572;2022-07-03T00:48:16;1.70;;;1.60;;
65613;SDS011;52283;49.292;10.572;2022-07-03T00:50:46;1.73;;;1.63;;
65613;SDS011;52283;49.292;10.572;2022-07-03T00:53:14;3.03;;;1.50;;
65613;SDS011;52283;49.292;10.572;2022-07-03T00:55:49;2.47;;;1.60;;
65613;SDS011;52283;49.292;10.572;2022-07-03T00:58:18;2.28;;;1.92;;
65613;SDS011;52283;49.292;10.572;2022-07-03T01:00:45;2.20;;;2.00;;
65613;SDS011;52283;49.292;10.572;2022-07-03T01:03:16;4.37;;;2.37;;
65613;SDS011;52283;49.292;10.572;2022-07-03T01:05:44;2.05;;;1.90;;
65613;SDS011;52283;49.292;10.572;2022-07-03T01:08:18;1.75;;;1.65;;
65613;SDS011;52283;49.292;10.572;2022-07-03T01:10:49;1.60;;;1.50;;
65613;SDS011;52283;49.292;10.572;2022-07-03T01:13:22;1.73;;;1.63;;
65613;SDS011;52283;49.292;10.572;2022-07-03T01:15:56;2.63;;;1.73;;
65613;SDS011;52283;49.292;10.572;2022-07-03T01:18:30;2.08;;;1.98;;
65613;SDS011;52283;49.292;10.572;2022-07-03T01:21:07;3.35;;;2.75;;
65613;SDS011;52283;49.292;10.572;2022-07-03T01:23:46;2.10;;;1.90;;
65613;SDS011;52283;49.292;10.572;2022-07-03T01:26:34;1.92;;;1.75;;
65613;SDS011;52283;49.292;10.572;2022-07-03T01:29:06;2.53;;;1.67;;
65613;SDS011;52283;49.292;10.572;2022-07-03T01:31:35;2.75;;;1.58;;
65613;SDS011;52283;49.292;10.572;2022-07-03T01:34:04;2.13;;;1.60;;
65613;SDS011;52283;49.292;10.572;2022-07-03T01:36:38;4.95;;;1.83;;
65613;SDS011;52283;49.292;10.572;2022-07-03T01:39:07;2.90;;;1.58;;
65613;SDS011;52283;49.292;10.572;2022-07-03T01:41:38;1.60;;;1.40;;
65613;SDS011;52283;49.292;10.572;2022-07-03T01:44:04;2.47;;;1.65;;
65613;SDS011;52283;49.292;10.572;2022-07-03T01:46:32;1.50;;;1.40;;
65613;SDS011;52283;49.292;10.572;2022-07-03T01:48:59;2.08;;;1.70;;
65613;SDS011;52283;49.292;10.572;2022-07-03T01:51:26;2.17;;;1.67;;
65613;SDS011;52283;49.292;10.572;2022-07-03T01:53:53;5.68;;;1.83;;
65613;SDS011;52283;49.292;10.572;2022-07-03T01:56:21;4.45;;;1.98;;
65613;SDS011;52283;49.292;10.572;2022-07-03T01:58:50;5.20;;;1.92;;
65613;SDS011;52283;49.292;10.572;2022-07-03T02:01:18;2.45;;;1.70;;
65613;SDS011;52283;49.292;10.572;2022-07-03T02:03:51;3.95;;;3.20;;
65613;SDS011;52283;49.292;10.572;2022-07-03T02:06:28;4.95;;;2.63;;
65613;SDS011;52283;49.292;10.572;2022-07-03T02:09:05;2.45;;;2.25;;
65613;SDS011;52283;49.292;10.572;2022-07-03T02:11:36;5.18;;;2.03;;
65613;SDS011;52283;49.292;10.572;2022-07-03T02:14:10;2.50;;;2.10;;
65613;SDS011;52283;49.292;10.572;2022-07-03T02:16:43;6.20;;;2.58;;
65613;SDS011;52283;49.292;10.572;2022-07-03T02:19:17;4.45;;;1.95;;
65613;SDS011;52283;49.292;10.572;2022-07-03T02:21:47;1.77;;;1.60;;
65613;SDS011;52283;49.292;10.572;2022-07-03T02:24:19;3.92;;;2.00;;
65613;SDS011;52283;49.292;10.572;2022-07-03T02:26:54;2.20;;;1.60;;
65613;SDS011;52283;49.292;10.572;2022-07-03T02:29:28;4.50;;;2.33;;
65613;SDS011;52283;49.292;10.572;2022-07-03T02:31:58;1.70;;;1.60;;
65613;SDS011;52283;49.292;10.572;2022-07-03T02:34:26;2.55;;;2.10;;
65613;SDS011;52283;49.292;10.572;2022-07-03T02:36:55;3.72;;;1.70;;
65613;SDS011;52283;49.292;10.572;2022-07-03T02:39:26;2.30;;;2.03;;
65613;SDS011;52283;49.292;10.572;2022-07-03T02:41:58;3.63;;;2.05;;
65613;SDS011;52283;49.292;10.572;2022-07-03T02:44:29;3.72;;;2.83;;
65613;SDS011;52283;49.292;10.572;2022-07-03T02:47:02;2.85;;;2.33;;
65613;SDS011;52283;49.292;10.572;2022-07-03T02:49:42;3.72;;;1.90;;
65613;SDS011;52283;49.292;10.572;2022-07-03T02:52:17;2.88;;;2.03;;
65613;SDS011;52283;49.292;10.572;2022-07-03T02:54:53;2.78;;;2.20;;
65613;SDS011;52283;49.292;10.572;2022-07-03T02:57:23;3.58;;;3.00;;
65613;SDS011;52283;49.292;10.572;2022-07-03T02:59:54;7.03;;;2.97;;
65613;SDS011;52283;49.292;10.572;2022-07-03T03:02:31;3.97;;;2.85;;
65613;SDS011;52283;49.292;10.572;2022-07-03T03:05:13;2.47;;;2.03;;
65613;SDS011;52283;49.292;10.572;2022-07-03T03:07:45;2.17;;;2.08;;
65613;SDS011;52283;49.292;10.572;2022-07-03T03:10:19;2.20;;;2.00;;
65613;SDS011;52283;49.292;10.572;2022-07-03T03:12:46;1.55;;;1.45;;
65613;SDS011;52283;49.292;10.572;2022-07-03T03:15:19;3.53;;;2.15;;
65613;SDS011;52283;49.292;10.572;2022-07-03T03:17:49;3.33;;;1.53;;
65613;SDS011;52283;49.292;10.572;2022-07-03T03:20:17;1.90;;;1.75;;
65613;SDS011;52283;49.292;10.572;2022-07-03T03:25:43;2.65;;;1.77;;
65613;SDS011;52283;49.292;10.572;2022-07-03T03:28:11;2.97;;;2.00;;
65613;SDS011;52283;49.292;10.572;2022-07-03T03:30:39;3.20;;;2.38;;
65613;SDS011;52283;49.292;10.572;2022-07-03T03:33:06;6.78;;;2.60;;
65613;SDS011;52283;49.292;10.572;2022-07-03T03:35:34;3.50;;;2.60;;
65613;SDS011;52283;49.292;10.572;2022-07-03T03:38:01;3.22;;;2.25;;
65613;SDS011;52283;49.292;10.572;2022-07-03T03:40:28;3.03;;;2.70;;
65613;SDS011;52283;49.292;10.572;2022-07-03T03:42:54;2.50;;;2.25;;
65613;SDS011;52283;49.292;10.572;2022-07-03T03:45:21;10.43;;;2.65;;
65613;SDS011;52283;49.292;10.572;2022-07-03T03:47:49;3.33;;;2.60;;
65613;SDS011;52283;49.292;10.572;2022-07-03T03:50:15;3.85;;;3.00;;
65613;SDS011;52283;49.292;10.572;2022-07-03T03:52:42;3.92;;;2.40;;
65613;SDS011;52283;49.292;10.572;2022-07-03T03:55:09;2.78;;;2.45;;
65613;SDS011;52283;49.292;10.572;2022-07-03T03:57:35;3.30;;;2.47;;
65613;SDS011;52283;49.292;10.572;2022-07-03T04:00:02;2.28;;;2.08;;
65613;SDS011;52283;49.292;10.572;2022-07-03T04:02:29;2.78;;;2.58;;
65613;SDS011;52283;49.292;10.572;2022-07-03T04:04:57;3.05;;;2.35;;
65613;SDS011;52283;49.292;10.572;2022-07-03T04:07:24;2.10;;;1.90;;
65613;SDS011;52283;49.292;10.572;2022-07-03T04:09:51;2.45;;;2.20;;
65613;SDS011;52283;49.292;10.572;2022-07-03T04:12:17;3.53;;;2.05;;
65613;SDS011;52283;49.292;10.572;2022-07-03T04:14:44;3.33;;;2.30;;
65613;SDS011;52283;49.292;10.572;2022-07-03T04:17:10;5.97;;;2.25;;
65613;SDS011;52283;49.292;10.572;2022-07-03T04:19:37;2.13;;;1.90;;
65613;SDS011;52283;49.292;10.572;2022-07-03T04:22:05;2.75;;;2.55;;
65613;SDS011;52283;49.292;10.572;2022-07-03T04:24:33;4.40;;;2.08;;
65613;SDS011;52283;49.292;10.572;2022-07-03T04:27:00;4.78;;;2.38;;
65613;SDS011;52283;49.292;10.572;2022-07-03T04:29:26;2.25;;;2.00;;
65613;SDS011;52283;49.292;10.572;2022-07-03T04:31:53;3.78;;;2.47;;
65613;SDS011;52283;49.292;10.572;2022-07-03T04:34:19;5.72;;;3.20;;
65613;SDS011;52283;49.292;10.572;2022-07-03T04:36:46;3.15;;;2.25;;
65613;SDS011;52283;49.292;10.572;2022-07-03T04:39:15;3.78;;;2.40;;
65613;SDS011;52283;49.292;10.572;2022-07-03T04:41:42;3.38;;;2.47;;
65613;SDS011;52283;49.292;10.572;2022-07-03T04:44:08;3.28;;;1.90;;
65613;SDS011;52283;49.292;10.572;2022-07-03T04:46:35;2.85;;;2.42;;
65613;SDS011;52283;49.292;10.572;2022-07-03T04:49:01;2.28;;;2.08;;
65613;SDS011;52283;49.292;10.572;2022-07-03T04:51:28;3.03;;;2.72;;
65613;SDS011;52283;49.292;10.572;2022-07-03T04:53:54;5.78;;;2.10;;
65613;SDS011;52283;49.292;10.572;2022-07-03T04:56:22;3.15;;;2.10;;
65613;SDS011;52283;49.292;10.572;2022-07-03T04:58:49;2.85;;;1.98;;
65613;SDS011;52283;49.292;10.572;2022-07-03T05:01:15;3.67;;;2.00;;
65613;SDS011;52283;49.292;10.572;2022-07-03T05:03:42;5.03;;;2.72;;
65613;SDS011;52283;49.292;10.572;2022-07-03T05:06:08;4.18;;;2.45;;
65613;SDS011;52283;49.292;10.572;2022-07-03T05:08:35;3.33;;;2.42;;
65613;SDS011;52283;49.292;10.572;2022-07-03T05:11:01;2.78;;;2.22;;
65613;SDS011;52283;49.292;10.572;2022-07-03T05:13:29;3.08;;;1.98;;
65613;SDS011;52283;49.292;10.572;2022-07-03T05:15:55;5.95;;;2.60;;
65613;SDS011;52283;49.292;10.572;2022-07-03T05:20:56;2.60;;;2.03;;
65613;SDS011;52283;49.292;10.572;2022-07-03T05:23:23;2.53;;;2.28;;
65613;SDS011;52283;49.292;10.572;2022-07-03T05:25:49;3.22;;;2.15;;
65613;SDS011;52283;49.292;10.572;2022-07-03T05:28:16;2.95;;;1.70;;
65613;SDS011;52283;49.292;10.572;2022-07-03T05:30:43;2.03;;;1.90;;
65613;SDS011;52283;49.292;10.572;2022-07-03T05:33:10;2.80;;;2.47;;
65613;SDS011;52283;49.292;10.572;2022-07-03T05:35:36;2.92;;;2.13;;
65613;SDS011;52283;49.292;10.572;2022-07-03T05:38:03;2.15;;;2.00;;
65613;SDS011;52283;49.292;10.572;2022-07-03T05:40:29;2.70;;;1.90;;
65613;SDS011;52283;49.292;10.572;2022-07-03T05:42:55;2.42;;;1.88;;
65613;SDS011;52283;49.292;10.572;2022-07-03T05:45:21;2.42;;;1.60;;
65613;SDS011;52283;49.292;10.572;2022-07-03T05:47:49;2.00;;;1.55;;
65613;SDS011;52283;49.292;10.572;2022-07-03T05:50:16;2.63;;;1.50;;
65613;SDS011;52283;49.292;10.572;2022-07-03T05:52:43;3.63;;;1.70;;
65613;SDS011;52283;49.292;10.572;2022-07-03T05:55:10;1.50;;;1.40;;
65613;SDS011;52283;49.292;10.572;2022-07-03T05:57:36;2.40;;;1.40;;
65613;SDS011;52283;49.292;10.572;2022-07-03T06:00:03;4.30;;;1.40;;
65613;SDS011;52283;49.292;10.572;2022-07-03T06:02:31;2.63;;;1.45;;
65613;SDS011;52283;49.292;10.572;2022-07-03T06:04:59;1.20;;;1.10;;
65613;SDS011;52283;49.292;10.572;2022-07-03T06:07:25;2.25;;;1.00;;
65613;SDS011;52283;49.292;10.572;2022-07-03T06:09:52;1.10;;;1.00;;
65613;SDS011;52283;49.292;10.572;2022-07-03T06:12:18;3.00;;;0.90;;
65613;SDS011;52283;49.292;10.572;2022-07-03T06:14:45;1.38;;;1.27;;
65613;SDS011;52283;49.292;10.572;2022-07-03T06:17:11;1.80;;;1.20;;
65613;SDS011;52283;49.292;10.572;2022-07-03T06:19:38;2.65;;;1.30;;
65613;SDS011;52283;49.292;10.572;2022-07-03T06:22:05;1.05;;;1.00;;
65613;SDS011;52283;49.292;10.572;2022-07-03T06:24:32;2.88;;;1.00;;
65613;SDS011;52283;49.292;10.572;2022-07-03T06:26:58;1.92;;;1.15;;
65613;SDS011;52283;49.292;10.572;2022-07-03T06:29:25;1.25;;;0.90;;
65613;SDS011;52283;49.292;10.572;2022-07-03T06:31:51;2.13;;;1.00;;
65613;SDS011;52283;49.292;10.572;2022-07-03T06:34:18;0.70;;;0.70;;
65613;SDS011;52283;49.292;10.572;2022-07-03T06:36:44;1.02;;;0.90;;
65613;SDS011;52283;49.292;10.572;2022-07-03T06:39:12;0.73;;;0.65;;
65613;SDS011;52283;49.292;10.572;2022-07-03T06:41:39;1.17;;;0.90;;
65613;SDS011;52283;49.292;10.572;2022-07-03T06:44:05;3.20;;;0.98;;
65613;SDS011;52283;49.292;10.572;2022-07-03T06:46:32;1.05;;;0.70;;
65613;SDS011;52283;49.292;10.572;2022-07-03T06:48:58;1.75;;;0.90;;
65613;SDS011;52283;49.292;10.572;2022-07-03T06:51:25;0.70;;;0.60;;
65613;SDS011;52283;49.292;10.572;2022-07-03T06:53:51;0.77;;;0.77;;
65613;SDS011;52283;49.292;10.572;2022-07-03T06:56:19;2.40;;;0.70;;
65613;SDS011;52283;49.292;10.572;2022-07-03T06:58:46;1.83;;;0.60;;
65613;SDS011;52283;49.292;10.572;2022-07-03T07:01:12;2.35;;;0.70;;
65613;SDS011;52283;49.292;10.572;2022-07-03T07:03:38;2.33;;;0.80;;
65613;SDS011;52283;49.292;10.572;2022-07-03T07:06:05;2.22;;;0.70;;
65613;SDS011;52283;49.292;10.572;2022-07-03T07:08:31;0.60;;;0.60;;
65613;SDS011;52283;49.292;10.572;2022-07-03T07:10:58;1.02;;;0.70;;
65613;SDS011;52283;49.292;10.572;2022-07-03T07:13:27;5.20;;;0.90;;
65613;SDS011;52283;49.292;10.572;2022-07-03T07:15:53;0.60;;;0.60;;
65613;SDS011;52283;49.292;10.572;2022-07-03T07:18:20;0.77;;;0.70;;
65613;SDS011;52283;49.292;10.572;2022-07-03T07:20:47;2.00;;;0.60;;
65613;SDS011;52283;49.292;10.572;2022-07-03T07:23:13;1.02;;;0.60;;
65613;SDS011;52283;49.292;10.572;2022-07-03T07:25:40;1.00;;;0.63;;
65613;SDS011;52283;49.292;10.572;2022-07-03T07:28:06;0.75;;;0.60;;
65613;SDS011;52283;49.292;10.572;2022-07-03T07:30:34;0.60;;;0.60;;
65613;SDS011;52283;49.292;10.572;2022-07-03T07:33:01;1.52;;;0.50;;
65613;SDS011;52283;49.292;10.572;2022-07-03T07:35:28;0.60;;;0.43;;
65613;SDS011;52283;49.292;10.572;2022-07-03T07:37:54;0.52;;;0.50;;
65613;SDS011;52283;49.292;10.572;2022-07-03T07:40:21;0.50;;;0.50;;
65613;SDS011;52283;49.292;10.572;2022-07-03T07:42:47;1.08;;;0.52;;
65613;SDS011;52283;49.292;10.572;2022-07-03T07:45:14;1.85;;;0.57;;
65613;SDS011;52283;49.292;10.572;2022-07-03T07:47:42;1.25;;;0.45;;
65613;SDS011;52283;49.292;10.572;2022-07-03T07:50:08;1.30;;;0.50;;
65613;SDS011;52283;49.292;10.572;2022-07-03T07:52:35;1.05;;;0.40;;
65613;SDS011;52283;49.292;10.572;2022-07-03T07:55:03;1.27;;;0.50;;
65613;SDS011;52283;49.292;10.572;2022-07-03T07:57:34;0.88;;;0.70;;
65613;SDS011;52283;49.292;10.572;2022-07-03T08:00:05;1.75;;;0.55;;
65613;SDS011;52283;49.292;10.572;2022-07-03T08:02:33;1.30;;;0.50;;
65613;SDS011;52283;49.292;10.572;2022-07-03T08:05:18;1.33;;;0.40;;
65613;SDS011;52283;49.292;10.572;2022-07-03T08:08:04;0.50;;;0.50;;
65613;SDS011;52283;49.292;10.572;2022-07-03T08:10:36;2.55;;;0.57;;
65613;SDS011;52283;49.292;10.572;2022-07-03T08:13:04;5.68;;;0.77;;
65613;SDS011;52283;49.292;10.572;2022-07-03T08:15:31;1.17;;;0.50;;
65613;SDS011;52283;49.292;10.572;2022-07-03T08:17:57;0.43;;;0.40;;
65613;SDS011;52283;49.292;10.572;2022-07-03T08:20:26;1.05;;;0.40;;
65613;SDS011;52283;49.292;10.572;2022-07-03T08:22:54;0.43;;;0.40;;
65613;SDS011;52283;49.292;10.572;2022-07-03T08:25:20;1.20;;;0.47;;
65613;SDS011;52283;49.292;10.572;2022-07-03T08:27:47;0.45;;;0.40;;
65613;SDS011;52283;49.292;10.572;2022-07-03T08:30:14;2.53;;;0.40;;
65613;SDS011;52283;49.292;10.572;2022-07-03T08:32:42;0.70;;;0.40;;
65613;SDS011;52283;49.292;10.572;2022-07-03T08:35:09;1.75;;;0.60;;
65613;SDS011;52283;49.292;10.572;2022-07-03T08:37:37;0.88;;;0.47;;
65613;SDS011;52283;49.292;10.572;2022-07-03T08:40:06;1.45;;;0.40;;
65613;SDS011;52283;49.292;10.572;2022-07-03T08:42:33;0.77;;;0.30;;
65613;SDS011;52283;49.292;10.572;2022-07-03T08:45:03;1.05;;;0.52;;
65613;SDS011;52283;49.292;10.572;2022-07-03T08:47:31;0.88;;;0.32;;
65613;SDS011;52283;49.292;10.572;2022-07-03T08:50:00;0.98;;;0.32;;
65613;SDS011;52283;49.292;10.572;2022-07-03T08:52:27;0.30;;;0.20;;
65613;SDS011;52283;49.292;10.572;2022-07-03T08:54:55;1.25;;;0.50;;
65613;SDS011;52283;49.292;10.572;2022-07-03T08:57:22;0.80;;;0.30;;
65613;SDS011;52283;49.292;10.572;2022-07-03T08:59:51;0.30;;;0.30;;
65613;SDS011;52283;49.292;10.572;2022-07-03T09:02:19;0.50;;;0.47;;
65613;SDS011;52283;49.292;10.572;2022-07-03T09:04:47;0.35;;;0.20;;
65613;SDS011;52283;49.292;10.572;2022-07-03T09:07:14;1.27;;;0.40;;
65613;SDS011;52283;49.292;10.572;2022-07-03T09:09:44;0.40;;;0.40;;
65613;SDS011;52283;49.292;10.572;2022-07-03T09:12:12;0.20;;;0.20;;
65613;SDS011;52283;49.292;10.572;2022-07-03T09:14:39;0.20;;;0.20;;
65613;SDS011;52283;49.292;10.572;2022-07-03T09:17:06;1.05;;;0.57;;
65613;SDS011;52283;49.292;10.572;2022-07-03T09:19:39;0.20;;;0.20;;
65613;SDS011;52283;49.292;10.572;2022-07-03T09:22:18;1.38;;;0.35;;
65613;SDS011;52283;49.292;10.572;2022-07-03T09:24:47;1.23;;;0.40;;
65613;SDS011;52283;49.292;10.572;2022-07-03T09:27:17;1.38;;;0.38;;
65613;SDS011;52283;49.292;10.572;2022-07-03T09:32:17;1.08;;;0.98;;
65613;SDS011;52283;49.292;10.572;2022-07-03T09:34:48;0.20;;;0.20;;
65613;SDS011;52283;49.292;10.572;2022-07-03T09:37:14;0.30;;;0.20;;
65613;SDS011;52283;49.292;10.572;2022-07-03T09:39:54;0.32;;;0.30;;
65613;SDS011;52283;49.292;10.572;2022-07-03T09:42:23;1.50;;;0.40;;
65613;SDS011;52283;49.292;10.572;2022-07-03T09:44:50;0.45;;;0.30;;
65613;SDS011;52283;49.292;10.572;2022-07-03T09:47:21;1.20;;;0.30;;
65613;SDS011;52283;49.292;10.572;2022-07-03T09:49:50;0.40;;;0.40;;
65613;SDS011;52283;49.292;10.572;2022-07-03T09:52:25;1.77;;;0.30;;
65613;SDS011;52283;49.292;10.572;2022-07-03T09:54:54;1.25;;;0.38;;
65613;SDS011;52283;49.292;10.572;2022-07-03T09:57:20;0.40;;;0.32;;
65613;SDS011;52283;49.292;10.572;2022-07-03T09:59:49;0.40;;;0.40;;
65613;SDS011;52283;49.292;10.572;2022-07-03T10:02:15;2.70;;;0.30;;
65613;SDS011;52283;49.292;10.572;2022-07-03T10:04:42;1.75;;;0.30;;
65613;SDS011;52283;49.292;10.572;2022-07-03T10:07:08;0.30;;;0.30;;
65613;SDS011;52283;49.292;10.572;2022-07-03T10:09:35;1.13;;;0.60;;
65613;SDS011;52283;49.292;10.572;2022-07-03T10:12:02;0.47;;;0.43;;
65613;SDS011;52283;49.292;10.572;2022-07-03T10:14:30;0.57;;;0.30;;
65613;SDS011;52283;49.292;10.572;2022-07-03T10:16:59;2.28;;;0.30;;
65613;SDS011;52283;49.292;10.572;2022-07-03T10:19:27;0.45;;;0.30;;
65613;SDS011;52283;49.292;10.572;2022-07-03T10:21:55;0.32;;;0.20;;
65613;SDS011;52283;49.292;10.572;2022-07-03T10:24:24;0.30;;;0.20;;
65613;SDS011;52283;49.292;10.572;2022-07-03T10:26:53;1.20;;;0.30;;
65613;SDS011;52283;49.292;10.572;2022-07-03T10:29:20;0.35;;;0.30;;
65613;SDS011;52283;49.292;10.572;2022-07-03T10:31:48;0.40;;;0.40;;
65613;SDS011;52283;49.292;10.572;2022-07-03T10:34:17;0.43;;;0.28;;
65613;SDS011;52283;49.292;10.572;2022-07-03T10:36:45;0.60;;;0.30;;
65613;SDS011;52283;49.292;10.572;2022-07-03T10:39:17;0.30;;;0.30;;
65613;SDS011;52283;49.292;10.572;2022-07-03T10:41:50;1.77;;;0.40;;
65613;SDS011;52283;49.292;10.572;2022-07-03T10:44:49;0.98;;;0.40;;
65613;SDS011;52283;49.292;10.572;2022-07-03T10:47:38;0.22;;;0.20;;
65613;SDS011;52283;49.292;10.572;2022-07-03T10:50:09;1.10;;;0.30;;
65613;SDS011;52283;49.292;10.572;2022-07-03T10:52:37;0.47;;;0.47;;
65613;SDS011;52283;49.292;10.572;2022-07-03T10:55:05;0.30;;;0.30;;
65613;SDS011;52283;49.292;10.572;2022-07-03T10:57:33;0.82;;;0.20;;
65613;SDS011;52283;49.292;10.572;2022-07-03T11:00:04;1.55;;;0.20;;
65613;SDS011;52283;49.292;10.572;2022-07-03T11:02:33;0.82;;;0.30;;
65613;SDS011;52283;49.292;10.572;2022-07-03T11:08:06;0.30;;;0.30;;
65613;SDS011;52283;49.292;10.572;2022-07-03T11:10:34;0.30;;;0.30;;
65613;SDS011;52283;49.292;10.572;2022-07-03T11:13:08;0.60;;;0.30;;
65613;SDS011;52283;49.292;10.572;2022-07-03T11:15:41;1.40;;;0.20;;
65613;SDS011;52283;49.292;10.572;2022-07-03T11:18:12;0.38;;;0.30;;
65613;SDS011;52283;49.292;10.572;2022-07-03T11:23:44;0.60;;;0.30;;
65613;SDS011;52283;49.292;10.572;2022-07-03T11:26:23;0.40;;;0.40;;
65613;SDS011;52283;49.292;10.572;2022-07-03T11:28:50;2.85;;;0.65;;
65613;SDS011;52283;49.292;10.572;2022-07-03T11:31:18;0.28;;;0.28;;
65613;SDS011;52283;49.292;10.572;2022-07-03T11:33:47;0.30;;;0.30;;
65613;SDS011;52283;49.292;10.572;2022-07-03T11:36:26;0.82;;;0.40;;
65613;SDS011;52283;49.292;10.572;2022-07-03T11:39:08;0.93;;;0.35;;
65613;SDS011;52283;49.292;10.572;2022-07-03T11:41:42;0.50;;;0.32;;
65613;SDS011;52283;49.292;10.572;2022-07-03T11:44:13;0.85;;;0.40;;
65613;SDS011;52283;49.292;10.572;2022-07-03T11:46:41;1.38;;;0.82;;
65613;SDS011;52283;49.292;10.572;2022-07-03T11:49:22;0.20;;;0.20;;
65613;SDS011;52283;49.292;10.572;2022-07-03T11:51:54;1.33;;;0.20;;
65613;SDS011;52283;49.292;10.572;2022-07-03T11:54:23;2.30;;;0.40;;
65613;SDS011;52283;49.292;10.572;2022-07-03T11:56:50;0.32;;;0.30;;
65613;SDS011;52283;49.292;10.572;2022-07-03T11:59:16;0.40;;;0.30;;
65613;SDS011;52283;49.292;10.572;2022-07-03T12:01:43;0.28;;;0.28;;
65613;SDS011;52283;49.292;10.572;2022-07-03T12:04:12;0.55;;;0.30;;
65613;SDS011;52283;49.292;10.572;2022-07-03T12:06:40;0.70;;;0.30;;
65613;SDS011;52283;49.292;10.572;2022-07-03T12:09:12;0.50;;;0.50;;
65613;SDS011;52283;49.292;10.572;2022-07-03T12:11:42;0.30;;;0.30;;
65613;SDS011;52283;49.292;10.572;2022-07-03T12:14:33;0.77;;;0.30;;
65613;SDS011;52283;49.292;10.572;2022-07-03T12:17:00;0.73;;;0.30;;
65613;SDS011;52283;49.292;10.572;2022-07-03T12:19:27;1.08;;;0.40;;
65613;SDS011;52283;49.292;10.572;2022-07-03T12:21:53;0.25;;;0.25;;
65613;SDS011;52283;49.292;10.572;2022-07-03T12:24:21;2.10;;;0.30;;
65613;SDS011;52283;49.292;10.572;2022-07-03T12:26:48;0.20;;;0.20;;
65613;SDS011;52283;49.292;10.572;2022-07-03T12:29:15;0.30;;;0.30;;
65613;SDS011;52283;49.292;10.572;2022-07-03T12:31:43;0.40;;;0.40;;
65613;SDS011;52283;49.292;10.572;2022-07-03T12:34:11;0.32;;;0.28;;
65613;SDS011;52283;49.292;10.572;2022-07-03T12:36:39;0.20;;;0.20;;
65613;SDS011;52283;49.292;10.572;2022-07-03T12:39:06;0.50;;;0.38;;
65613;SDS011;52283;49.292;10.572;2022-07-03T12:41:34;0.45;;;0.30;;
65613;SDS011;52283;49.292;10.572;2022-07-03T12:44:01;0.30;;;0.30;;
65613;SDS011;52283;49.292;10.572;2022-07-03T12:46:27;0.70;;;0.50;;
65613;SDS011;52283;49.292;10.572;2022-07-03T12:49:00;1.33;;;0.22;;
65613;SDS011;52283;49.292;10.572;2022-07-03T12:51:41;0.55;;;0.40;;
65613;SDS011;52283;49.292;10.572;2022-07-03T12:54:10;0.90;;;0.30;;
65613;SDS011;52283;49.292;10.572;2022-07-03T12:56:40;0.35;;;0.32;;
65613;SDS011;52283;49.292;10.572;2022-07-03T12:59:16;0.30;;;0.30;;
65613;SDS011;52283;49.292;10.572;2022-07-03T13:01:59;0.95;;;0.28;;
65613;SDS011;52283;49.292;10.572;2022-07-03T13:04:31;0.30;;;0.30;;
65613;SDS011;52283;49.292;10.572;2022-07-03T13:06:59;0.30;;;0.30;;
65613;SDS011;52283;49.292;10.572;2022-07-03T13:09:26;0.30;;;0.30;;
65613;SDS011;52283;49.292;10.572;2022-07-03T13:11:54;0.20;;;0.20;;
65613;SDS011;52283;49.292;10.572;2022-07-03T13:14:20;0.20;;;0.20;;
65613;SDS011;52283;49.292;10.572;2022-07-03T13:16:48;1.60;;;0.30;;
65613;SDS011;52283;49.292;10.572;2022-07-03T13:19:16;0.30;;;0.30;;
65613;SDS011;52283;49.292;10.572;2022-07-03T13:21:44;1.65;;;0.20;;
65613;SDS011;52283;49.292;10.572;2022-07-03T13:24:11;0.30;;;0.30;;
65613;SDS011;52283;49.292;10.572;2022-07-03T13:26:39;2.72;;;0.30;;
65613;SDS011;52283;49.292;10.572;2022-07-03T13:29:08;0.30;;;0.30;;
65613;SDS011;52283;49.292;10.572;2022-07-03T13:31:35;1.20;;;0.35;;
65613;SDS011;52283;49.292;10.572;2022-07-03T13:34:01;0.50;;;0.47;;
65613;SDS011;52283;49.292;10.572;2022-07-03T13:36:28;0.55;;;0.43;;
65613;SDS011;52283;49.292;10.572;2022-07-03T13:38:56;0.30;;;0.30;;
65613;SDS011;52283;49.292;10.572;2022-07-03T13:41:23;0.30;;;0.30;;
65613;SDS011;52283;49.292;10.572;2022-07-03T13:43:50;0.40;;;0.40;;
65613;SDS011;52283;49.292;10.572;2022-07-03T13:46:19;1.30;;;0.30;;
65613;SDS011;52283;49.292;10.572;2022-07-03T13:48:48;0.45;;;0.28;;
65613;SDS011;52283;49.292;10.572;2022-07-03T13:51:15;1.42;;;0.30;;
65613;SDS011;52283;49.292;10.572;2022-07-03T13:53:42;0.30;;;0.30;;
65613;SDS011;52283;49.292;10.572;2022-07-03T13:56:08;0.25;;;0.22;;
65613;SDS011;52283;49.292;10.572;2022-07-03T13:58:35;0.75;;;0.68;;
65613;SDS011;52283;49.292;10.572;2022-07-03T14:01:01;0.30;;;0.30;;
65613;SDS011;52283;49.292;10.572;2022-07-03T14:03:29;1.52;;;0.30;;
65613;SDS011;52283;49.292;10.572;2022-07-03T14:05:56;0.40;;;0.30;;
65613;SDS011;52283;49.292;10.572;2022-07-03T14:08:22;0.75;;;0.28;;
65613;SDS011;52283;49.292;10.572;2022-07-03T14:10:49;0.30;;;0.30;;
65613;SDS011;52283;49.292;10.572;2022-07-03T14:13:16;0.28;;;0.28;;
65613;SDS011;52283;49.292;10.572;2022-07-03T14:15:44;1.10;;;0.25;;
65613;SDS011;52283;49.292;10.572;2022-07-03T14:18:10;1.80;;;0.35;;
65613;SDS011;52283;49.292;10.572;2022-07-03T14:20:38;1.67;;;0.40;;
65613;SDS011;52283;49.292;10.572;2022-07-03T14:23:05;0.65;;;0.30;;
65613;SDS011;52283;49.292;10.572;2022-07-03T14:25:31;7.47;;;0.40;;
65613;SDS011;52283;49.292;10.572;2022-07-03T14:27:58;0.30;;;0.20;;
65613;SDS011;52283;49.292;10.572;2022-07-03T14:30:42;0.50;;;0.30;;
65613;SDS011;52283;49.292;10.572;2022-07-03T14:33:26;0.95;;;0.65;;
65613;SDS011;52283;49.292;10.572;2022-07-03T14:35:54;0.60;;;0.40;;
65613;SDS011;52283;49.292;10.572;2022-07-03T14:38:20;0.80;;;0.30;;
65613;SDS011;52283;49.292;10.572;2022-07-03T14:40:47;0.90;;;0.30;;
65613;SDS011;52283;49.292;10.572;2022-07-03T14:43:13;0.30;;;0.30;;
65613;SDS011;52283;49.292;10.572;2022-07-03T14:45:40;0.50;;;0.30;;
65613;SDS011;52283;49.292;10.572;2022-07-03T14:48:06;0.55;;;0.40;;
65613;SDS011;52283;49.292;10.572;2022-07-03T14:50:34;0.30;;;0.30;;
65613;SDS011;52283;49.292;10.572;2022-07-03T14:53:01;0.77;;;0.35;;
65613;SDS011;52283;49.292;10.572;2022-07-03T14:55:36;0.50;;;0.50;;
65613;SDS011;52283;49.292;10.572;2022-07-03T14:58:07;1.35;;;0.40;;